createdAt,value
2017-06-23T00:00:33.823Z,18.29
2017-06-23T00:01:42.715Z,18.32
2017-06-23T00:02:51.602Z,18.11
2017-06-23T00:04:00.494Z,18.23
2017-06-23T00:05:09.712Z,18.17
2017-06-23T00:06:18.605Z,18.12
2017-06-23T00:07:27.819Z,18.12
2017-06-23T00:08:37.030Z,18.08
2017-06-23T00:09:45.919Z,18.11
2017-06-23T00:10:55.142Z,18
2017-06-23T00:12:04.535Z,17.99
2017-06-23T00:13:13.773Z,18.03
2017-06-23T00:14:22.986Z,18.07
2017-06-23T00:15:32.195Z,18.05
2017-06-23T00:16:41.085Z,17.96
2017-06-23T00:17:49.978Z,17.95
2017-06-23T00:18:58.918Z,17.93
2017-06-23T00:20:07.810Z,17.87
2017-06-23T00:21:17.030Z,17.89
2017-06-23T00:22:25.929Z,17.92
2017-06-23T00:23:34.971Z,17.9
2017-06-23T00:24:43.863Z,17.87
2017-06-23T00:25:52.754Z,17.92
2017-06-23T00:27:01.643Z,17.79
2017-06-23T00:28:11.523Z,17.86
2017-06-23T00:29:20.562Z,17.93
2017-06-23T00:30:29.452Z,17.75
2017-06-23T00:31:38.989Z,17.68
2017-06-23T00:32:47.879Z,17.75
2017-06-23T00:33:56.768Z,17.66
2017-06-23T00:35:06.136Z,17.64
2017-06-23T00:36:15.028Z,17.7
2017-06-23T00:37:24.241Z,17.75
2017-06-23T00:38:33.128Z,17.71
2017-06-23T00:39:42.338Z,17.64
2017-06-23T00:40:51.375Z,17.52
2017-06-23T00:42:00.916Z,17.64
2017-06-23T00:43:09.834Z,17.59
2017-06-23T00:44:18.728Z,17.62
2017-06-23T00:45:27.946Z,17.74
2017-06-23T00:46:36.986Z,17.64
2017-06-23T00:47:45.882Z,17.68
2017-06-23T00:48:54.771Z,17.56
2017-06-23T00:50:03.984Z,17.71
2017-06-23T00:51:13.198Z,17.75
2017-06-23T00:52:22.138Z,17.64
2017-06-23T00:53:31.029Z,17.59
2017-06-23T00:54:39.922Z,17.54
2017-06-23T00:55:48.812Z,17.7
2017-06-23T00:56:57.705Z,17.52
2017-06-23T00:58:06.917Z,17.63
2017-06-23T00:59:15.808Z,17.59
2017-06-23T01:00:25.024Z,17.62
2017-06-23T01:01:33.913Z,17.54
2017-06-23T01:02:43.448Z,17.71
2017-06-23T01:03:52.486Z,17.68
2017-06-23T01:05:01.381Z,17.74
2017-06-23T01:06:10.596Z,17.66
2017-06-23T01:07:19.486Z,17.74
2017-06-23T01:08:28.380Z,17.63
2017-06-23T01:09:37.645Z,17.72
2017-06-23T01:10:46.861Z,17.71
2017-06-23T01:11:55.754Z,17.71
2017-06-23T01:13:04.646Z,17.64
2017-06-23T01:14:14.182Z,17.7
2017-06-23T01:15:23.121Z,17.68
2017-06-23T01:16:32.012Z,17.72
2017-06-23T01:17:41.552Z,17.79
2017-06-23T01:18:50.770Z,17.78
2017-06-23T01:19:59.982Z,17.81
2017-06-23T01:21:08.979Z,17.81
2017-06-23T01:22:18.200Z,17.74
2017-06-23T01:23:27.738Z,17.78
2017-06-23T01:24:36.627Z,17.74
2017-06-23T01:25:45.516Z,17.74
2017-06-23T01:26:54.452Z,17.66
2017-06-23T01:28:03.997Z,17.82
2017-06-23T01:29:13.545Z,17.72
2017-06-23T01:30:22.760Z,17.66
2017-06-23T01:31:31.658Z,17.7
2017-06-23T01:32:40.694Z,17.75
2017-06-23T01:33:49.906Z,17.75
2017-06-23T01:34:59.118Z,17.7
2017-06-23T01:36:08.010Z,17.79
2017-06-23T01:37:16.898Z,17.74
2017-06-23T01:38:25.786Z,17.66
2017-06-23T01:39:35.005Z,17.75
2017-06-23T01:40:43.901Z,17.75
2017-06-23T01:41:52.790Z,17.71
2017-06-23T01:43:01.680Z,17.71
2017-06-23T01:44:11.519Z,17.75
2017-06-23T01:45:20.740Z,17.68
2017-06-23T01:46:29.631Z,17.64
2017-06-23T01:47:38.522Z,17.78
2017-06-23T01:48:47.411Z,17.75
2017-06-23T01:49:56.398Z,17.77
2017-06-23T01:51:05.308Z,17.79
2017-06-23T01:52:14.199Z,17.72
2017-06-23T01:53:23.740Z,17.77
2017-06-23T01:54:33.282Z,17.71
2017-06-23T01:55:42.594Z,17.79
2017-06-23T01:56:51.482Z,17.75
2017-06-23T01:58:00.693Z,17.66
2017-06-23T01:59:10.235Z,17.74
2017-06-23T02:00:19.126Z,17.75
2017-06-23T02:01:28.170Z,17.75
2017-06-23T02:02:37.390Z,17.78
2017-06-23T02:03:46.933Z,17.74
2017-06-23T02:04:56.175Z,17.75
2017-06-23T02:06:05.393Z,17.7
2017-06-23T02:07:14.281Z,17.75
2017-06-23T02:08:23.167Z,17.77
2017-06-23T02:09:32.380Z,17.71
2017-06-23T02:10:41.922Z,17.75
2017-06-23T02:11:51.141Z,17.81
2017-06-23T02:13:00.079Z,17.75
2017-06-23T02:14:08.974Z,17.72
2017-06-23T02:15:18.188Z,17.64
2017-06-23T02:16:27.080Z,17.59
2017-06-23T02:17:35.971Z,17.78
2017-06-23T02:18:45.185Z,17.68
2017-06-23T02:19:54.399Z,17.7
2017-06-23T02:21:03.615Z,17.66
2017-06-23T02:22:12.830Z,17.64
2017-06-23T02:23:21.725Z,17.75
2017-06-23T02:24:30.939Z,17.71
2017-06-23T02:25:40.157Z,17.66
2017-06-23T02:26:50.017Z,17.66
2017-06-23T02:27:58.909Z,17.63
2017-06-23T02:29:07.796Z,17.68
2017-06-23T02:30:16.738Z,17.7
2017-06-23T02:31:25.632Z,17.7
2017-06-23T02:32:35.827Z,17.62
2017-06-23T02:33:44.720Z,17.7
2017-06-23T02:34:53.609Z,17.68
2017-06-23T02:36:03.150Z,17.64
2017-06-23T02:37:12.046Z,17.7
2017-06-23T02:38:20.938Z,17.55
2017-06-23T02:39:29.828Z,17.64
2017-06-23T02:40:38.724Z,17.58
2017-06-23T02:41:47.769Z,17.55
2017-06-23T02:42:57.321Z,17.58
2017-06-23T02:44:06.215Z,17.58
2017-06-23T02:45:15.108Z,17.54
2017-06-23T02:46:24.007Z,17.51
2017-06-23T02:47:33.050Z,17.55
2017-06-23T02:48:41.946Z,17.62
2017-06-23T02:49:50.837Z,17.58
2017-06-23T02:51:00.377Z,17.56
2017-06-23T02:52:09.591Z,17.62
2017-06-23T02:53:18.887Z,17.58
2017-06-23T02:54:27.782Z,17.56
2017-06-23T02:55:36.670Z,17.63
2017-06-23T02:56:45.561Z,17.56
2017-06-23T02:57:54.776Z,17.62
2017-06-23T02:59:03.968Z,17.54
2017-06-23T03:00:12.863Z,17.56
2017-06-23T03:01:22.079Z,17.55
2017-06-23T03:02:31.294Z,17.68
2017-06-23T03:03:40.185Z,17.54
2017-06-23T03:04:49.231Z,17.63
2017-06-23T03:05:58.126Z,17.68
2017-06-23T03:07:07.369Z,17.68
2017-06-23T03:08:16.262Z,17.59
2017-06-23T03:09:25.154Z,17.72
2017-06-23T03:10:34.247Z,17.66
2017-06-23T03:11:43.471Z,17.56
2017-06-23T03:12:52.361Z,17.55
2017-06-23T03:14:01.902Z,17.64
2017-06-23T03:15:10.794Z,17.66
2017-06-23T03:16:20.160Z,17.62
2017-06-23T03:17:29.049Z,17.59
2017-06-23T03:18:37.936Z,17.59
2017-06-23T03:19:46.828Z,17.66
2017-06-23T03:20:55.718Z,17.49
2017-06-23T03:22:04.769Z,17.56
2017-06-23T03:23:13.988Z,17.54
2017-06-23T03:24:22.887Z,17.58
2017-06-23T03:25:32.430Z,17.55
2017-06-23T03:26:41.645Z,17.66
2017-06-23T03:27:50.641Z,17.59
2017-06-23T03:28:59.528Z,17.56
2017-06-23T03:30:08.419Z,17.51
2017-06-23T03:31:17.634Z,17.56
2017-06-23T03:32:26.525Z,17.66
2017-06-23T03:33:35.572Z,17.62
2017-06-23T03:34:44.466Z,17.49
2017-06-23T03:35:53.357Z,17.49
2017-06-23T03:37:02.298Z,17.56
2017-06-23T03:38:11.841Z,17.74
2017-06-23T03:39:21.155Z,17.54
2017-06-23T03:40:30.042Z,17.49
2017-06-23T03:41:38.933Z,17.56
2017-06-23T03:42:47.829Z,17.58
2017-06-23T03:43:56.720Z,17.49
2017-06-23T03:45:06.098Z,17.49
2017-06-23T03:46:14.997Z,17.37
2017-06-23T03:47:23.887Z,17.36
2017-06-23T03:48:33.109Z,17.41
2017-06-23T03:49:42.002Z,17.4
2017-06-23T03:50:51.195Z,17.34
2017-06-23T03:52:00.087Z,17.34
2017-06-23T03:53:08.984Z,17.25
2017-06-23T03:54:17.873Z,17.31
2017-06-23T03:55:26.762Z,17.23
2017-06-23T03:56:36.140Z,17.23
2017-06-23T03:57:45.357Z,17.31
2017-06-23T03:58:54.898Z,17.26
2017-06-23T04:00:04.113Z,17.19
2017-06-23T04:01:13.654Z,17.14
2017-06-23T04:02:22.700Z,17.12
2017-06-23T04:03:31.588Z,17.11
2017-06-23T04:04:40.482Z,17.07
2017-06-23T04:05:49.370Z,17.11
2017-06-23T04:06:58.582Z,17.25
2017-06-23T04:08:07.573Z,17.23
2017-06-23T04:09:16.464Z,17.26
2017-06-23T04:10:26.004Z,17.18
2017-06-23T04:11:34.897Z,17.22
2017-06-23T04:12:43.807Z,17.21
2017-06-23T04:13:53.505Z,17.21
2017-06-23T04:15:02.397Z,17.23
2017-06-23T04:16:11.294Z,17.22
2017-06-23T04:17:20.512Z,17.22
2017-06-23T04:18:29.403Z,17.28
2017-06-23T04:19:38.294Z,17.15
2017-06-23T04:20:47.510Z,17.14
2017-06-23T04:21:56.725Z,17.14
2017-06-23T04:23:05.619Z,17.22
2017-06-23T04:24:15.166Z,17.16
2017-06-23T04:25:24.212Z,17.18
2017-06-23T04:26:33.425Z,17.16
2017-06-23T04:27:42.318Z,17.12
2017-06-23T04:28:51.216Z,17.06
2017-06-23T04:30:00.112Z,17.18
2017-06-23T04:31:09.482Z,17.06
2017-06-23T04:32:18.373Z,17.08
2017-06-23T04:33:27.591Z,17.04
2017-06-23T04:34:36.484Z,17.19
2017-06-23T04:35:45.702Z,17.04
2017-06-23T04:36:55.221Z,16.97
2017-06-23T04:38:04.113Z,17
2017-06-23T04:39:13.006Z,16.98
2017-06-23T04:40:21.898Z,17.01
2017-06-23T04:41:31.113Z,17.06
2017-06-23T04:42:40.011Z,16.93
2017-06-23T04:43:48.899Z,17.04
2017-06-23T04:44:57.789Z,17.04
2017-06-23T04:46:06.682Z,17.06
2017-06-23T04:47:15.568Z,16.94
2017-06-23T04:48:24.469Z,17.08
2017-06-23T04:49:33.364Z,17
2017-06-23T04:50:42.906Z,17.03
2017-06-23T04:51:52.124Z,16.96
2017-06-23T04:53:01.025Z,17.01
2017-06-23T04:54:10.292Z,16.98
2017-06-23T04:55:19.507Z,17.03
2017-06-23T04:56:28.400Z,17.03
2017-06-23T04:57:37.292Z,16.94
2017-06-23T04:58:46.179Z,17
2017-06-23T04:59:55.590Z,17.07
2017-06-23T05:01:04.481Z,17.01
2017-06-23T05:02:13.697Z,17
2017-06-23T05:03:22.588Z,17.12
2017-06-23T05:04:31.480Z,17.04
2017-06-23T05:05:40.471Z,17.04
2017-06-23T05:06:49.691Z,17
2017-06-23T05:07:58.912Z,17.06
2017-06-23T05:09:07.838Z,17.12
2017-06-23T05:10:16.732Z,17.04
2017-06-23T05:11:25.687Z,16.94
2017-06-23T05:12:34.582Z,17.07
2017-06-23T05:13:43.803Z,17.11
2017-06-23T05:14:52.699Z,17.14
2017-06-23T05:16:01.596Z,16.97
2017-06-23T05:17:10.824Z,17.06
2017-06-23T05:18:20.046Z,17.08
2017-06-23T05:19:28.940Z,17.06
2017-06-23T05:20:38.155Z,17.06
2017-06-23T05:21:47.052Z,17.01
2017-06-23T05:22:56.248Z,17.08
2017-06-23T05:24:05.464Z,17.04
2017-06-23T05:25:14.362Z,17.11
2017-06-23T05:26:23.257Z,17.19
2017-06-23T05:27:32.151Z,17.06
2017-06-23T05:28:41.145Z,17.06
2017-06-23T05:29:50.039Z,17.08
2017-06-23T05:30:59.281Z,17.06
2017-06-23T05:32:08.506Z,17.04
2017-06-23T05:33:17.725Z,17.08
2017-06-23T05:34:26.864Z,17.14
2017-06-23T05:35:35.757Z,17.15
2017-06-23T05:36:44.648Z,17.14
2017-06-23T05:37:53.536Z,17.08
2017-06-23T05:39:02.428Z,17.06
2017-06-23T05:40:11.470Z,17.11
2017-06-23T05:41:20.359Z,17.01
2017-06-23T05:42:29.573Z,17.07
2017-06-23T05:43:38.461Z,17.04
2017-06-23T05:44:47.350Z,16.97
2017-06-23T05:45:56.389Z,16.93
2017-06-23T05:47:05.604Z,16.94
2017-06-23T05:48:14.493Z,17.11
2017-06-23T05:49:23.388Z,17.01
2017-06-23T05:50:32.281Z,17.08
2017-06-23T05:51:41.424Z,17.01
2017-06-23T05:52:50.318Z,17.01
2017-06-23T05:53:59.209Z,17.06
2017-06-23T05:55:08.423Z,17.06
2017-06-23T05:56:17.638Z,17.08
2017-06-23T05:57:27.007Z,16.97
2017-06-23T05:58:35.898Z,17.01
2017-06-23T05:59:44.793Z,17.04
2017-06-23T06:00:53.684Z,17.01
2017-06-23T06:02:02.575Z,17.04
2017-06-23T06:03:11.727Z,17.08
2017-06-23T06:04:20.944Z,17.12
2017-06-23T06:05:30.162Z,17.16
2017-06-23T06:06:40.026Z,17.07
2017-06-23T06:07:48.920Z,17.15
2017-06-23T06:08:58.168Z,17.15
2017-06-23T06:10:07.385Z,17.11
2017-06-23T06:11:16.296Z,17.18
2017-06-23T06:12:25.527Z,17.14
2017-06-23T06:13:35.393Z,17.08
2017-06-23T06:14:44.609Z,17.15
2017-06-23T06:15:53.501Z,17.16
2017-06-23T06:17:02.403Z,17.11
2017-06-23T06:18:11.294Z,17.15
2017-06-23T06:19:20.509Z,17.18
2017-06-23T06:20:29.550Z,17.23
2017-06-23T06:21:38.444Z,17.3
2017-06-23T06:22:47.336Z,17.18
2017-06-23T06:23:56.227Z,17.12
2017-06-23T06:25:05.128Z,17.22
2017-06-23T06:26:14.019Z,17.19
2017-06-23T06:27:22.912Z,17.18
2017-06-23T06:28:31.807Z,17.22
2017-06-23T06:29:40.703Z,17.18
2017-06-23T06:30:50.245Z,17.18
2017-06-23T06:31:59.243Z,17.19
2017-06-23T06:33:08.784Z,17.22
2017-06-23T06:34:18.002Z,17.18
2017-06-23T06:35:26.894Z,17.25
2017-06-23T06:36:35.790Z,17.36
2017-06-23T06:37:44.840Z,17.3
2017-06-23T06:38:54.059Z,17.3
2017-06-23T06:40:03.273Z,17.4
2017-06-23T06:41:12.487Z,17.37
2017-06-23T06:42:21.379Z,17.52
2017-06-23T06:43:30.275Z,17.55
2017-06-23T06:44:39.170Z,17.52
2017-06-23T06:45:48.066Z,17.63
2017-06-23T06:46:57.285Z,17.7
2017-06-23T06:48:07.151Z,17.71
2017-06-23T06:49:16.472Z,17.75
2017-06-23T06:50:25.689Z,17.78
2017-06-23T06:51:34.598Z,17.86
2017-06-23T06:52:43.487Z,18.03
2017-06-23T06:53:52.374Z,18.03
2017-06-23T06:55:01.664Z,18.12
2017-06-23T06:56:10.561Z,18.14
2017-06-23T06:57:19.780Z,18.14
2017-06-23T06:58:28.668Z,18.21
2017-06-23T06:59:37.562Z,18.11
2017-06-23T07:00:47.405Z,18.15
2017-06-23T07:01:56.299Z,18.2
2017-06-23T07:03:05.197Z,18.11
2017-06-23T07:04:14.088Z,18.18
2017-06-23T07:05:22.982Z,18.26
2017-06-23T07:06:32.672Z,18.3
2017-06-23T07:07:41.563Z,18.3
2017-06-23T07:08:50.455Z,18.29
2017-06-23T07:09:59.355Z,18.32
2017-06-23T07:11:08.574Z,18.32
2017-06-23T07:12:17.618Z,18.44
2017-06-23T07:13:26.839Z,18.27
2017-06-23T07:14:35.729Z,18.32
2017-06-23T07:15:44.949Z,18.14
2017-06-23T07:16:53.843Z,18.26
2017-06-23T07:18:03.308Z,18.27
2017-06-23T07:19:12.520Z,18.27
2017-06-23T07:20:21.410Z,18.33
2017-06-23T07:21:30.628Z,18.36
2017-06-23T07:22:39.517Z,18.3
2017-06-23T07:23:48.511Z,18.2
2017-06-23T07:24:57.401Z,18.3
2017-06-23T07:26:06.649Z,18.32
2017-06-23T07:27:16.198Z,18.32
2017-06-23T07:28:25.091Z,18.37
2017-06-23T07:29:34.082Z,18.47
2017-06-23T07:30:42.974Z,18.54
2017-06-23T07:31:51.863Z,18.54
2017-06-23T07:33:00.754Z,18.54
2017-06-23T07:34:09.647Z,18.6
2017-06-23T07:35:19.011Z,18.65
2017-06-23T07:36:28.226Z,18.84
2017-06-23T07:37:37.439Z,18.82
2017-06-23T07:38:46.336Z,18.92
2017-06-23T07:39:55.234Z,18.98
2017-06-23T07:41:04.328Z,19.06
2017-06-23T07:42:13.220Z,19.02
2017-06-23T07:43:22.121Z,19.06
2017-06-23T07:44:31.025Z,19.19
2017-06-23T07:45:39.923Z,19.13
2017-06-23T07:46:49.297Z,19.04
2017-06-23T07:47:58.517Z,19.02
2017-06-23T07:49:07.734Z,19.19
2017-06-23T07:50:16.627Z,19.23
2017-06-23T07:51:25.520Z,19.31
2017-06-23T07:52:34.788Z,19.39
2017-06-23T07:53:43.683Z,19.36
2017-06-23T07:54:52.901Z,19.4
2017-06-23T07:56:01.788Z,19.36
2017-06-23T07:57:10.682Z,19.44
2017-06-23T07:58:19.928Z,19.43
2017-06-23T07:59:28.823Z,19.44
2017-06-23T08:00:37.725Z,19.54
2017-06-23T08:01:46.621Z,19.46
2017-06-23T08:02:55.528Z,19.41
2017-06-23T08:04:04.522Z,19.41
2017-06-23T08:05:13.416Z,19.43
2017-06-23T08:06:22.314Z,19.4
2017-06-23T08:07:31.892Z,19.39
2017-06-23T08:08:40.885Z,19.44
2017-06-23T08:09:49.830Z,19.43
2017-06-23T08:10:58.726Z,19.58
2017-06-23T08:12:07.628Z,19.59
2017-06-23T08:13:16.531Z,19.66
2017-06-23T08:14:25.446Z,19.56
2017-06-23T08:15:34.791Z,19.73
2017-06-23T08:16:44.014Z,19.87
2017-06-23T08:17:53.234Z,19.91
2017-06-23T08:19:02.129Z,19.94
2017-06-23T08:20:11.027Z,19.83
2017-06-23T08:21:19.921Z,19.73
2017-06-23T08:22:29.141Z,19.65
2017-06-23T08:23:38.036Z,19.81
2017-06-23T08:24:46.932Z,19.76
2017-06-23T08:25:55.826Z,19.69
2017-06-23T08:27:04.821Z,19.69
2017-06-23T08:28:14.043Z,19.69
2017-06-23T08:29:22.937Z,19.69
2017-06-23T08:30:31.833Z,19.76
2017-06-23T08:31:40.732Z,19.86
2017-06-23T08:32:50.100Z,19.95
2017-06-23T08:33:59.003Z,19.94
2017-06-23T08:35:07.899Z,19.88
2017-06-23T08:36:17.120Z,19.91
2017-06-23T08:37:26.338Z,19.77
2017-06-23T08:38:35.283Z,19.94
2017-06-23T08:39:44.177Z,19.91
2017-06-23T08:40:53.070Z,19.98
2017-06-23T08:42:01.966Z,19.94
2017-06-23T08:43:11.518Z,19.95
2017-06-23T08:44:20.420Z,20.06
2017-06-23T08:45:29.325Z,20.1
2017-06-23T08:46:38.244Z,20.2
2017-06-23T08:47:47.142Z,20.28
2017-06-23T08:48:56.693Z,20.33
2017-06-23T08:50:05.962Z,20.38
2017-06-23T08:51:14.856Z,20.52
2017-06-23T08:52:24.075Z,20.52
2017-06-23T08:53:32.967Z,20.66
2017-06-23T08:54:41.862Z,20.58
2017-06-23T08:55:51.132Z,20.69
2017-06-23T08:57:00.679Z,20.54
2017-06-23T08:58:09.579Z,20.51
2017-06-23T08:59:18.804Z,20.48
2017-06-23T09:00:27.710Z,20.5
2017-06-23T09:01:36.857Z,20.5
2017-06-23T09:02:46.401Z,20.47
2017-06-23T09:03:55.296Z,20.55
2017-06-23T09:05:04.852Z,20.47
2017-06-23T09:06:14.397Z,20.5
2017-06-23T09:07:23.450Z,20.62
2017-06-23T09:08:32.347Z,20.67
2017-06-23T09:09:41.566Z,20.66
2017-06-23T09:10:50.461Z,20.66
2017-06-23T09:11:59.383Z,20.47
2017-06-23T09:13:08.717Z,20.52
2017-06-23T09:14:17.610Z,20.51
2017-06-23T09:15:26.828Z,20.57
2017-06-23T09:16:35.724Z,20.7
2017-06-23T09:17:44.616Z,20.72
2017-06-23T09:18:53.666Z,20.7
2017-06-23T09:20:02.884Z,20.59
2017-06-23T09:21:12.103Z,20.57
2017-06-23T09:22:20.997Z,20.57
2017-06-23T09:23:30.549Z,20.43
2017-06-23T09:24:39.697Z,20.66
2017-06-23T09:25:48.923Z,20.76
2017-06-23T09:26:57.815Z,20.76
2017-06-23T09:28:07.034Z,20.87
2017-06-23T09:29:16.250Z,20.88
2017-06-23T09:30:25.206Z,20.85
2017-06-23T09:31:34.101Z,20.76
2017-06-23T09:32:43.323Z,20.55
2017-06-23T09:33:52.549Z,20.5
2017-06-23T09:35:01.774Z,20.5
2017-06-23T09:36:10.677Z,20.51
2017-06-23T09:37:19.583Z,20.48
2017-06-23T09:38:28.475Z,20.52
2017-06-23T09:39:37.397Z,20.57
2017-06-23T09:40:46.298Z,20.5
2017-06-23T09:41:55.242Z,20.5
2017-06-23T09:43:04.163Z,20.5
2017-06-23T09:44:13.070Z,20.47
2017-06-23T09:45:22.324Z,20.47
2017-06-23T09:46:31.224Z,20.48
2017-06-23T09:47:40.218Z,20.38
2017-06-23T09:48:49.112Z,20.32
2017-06-23T09:49:58.005Z,20.35
2017-06-23T09:51:07.228Z,20.33
2017-06-23T09:52:16.122Z,20.48
2017-06-23T09:53:25.318Z,20.5
2017-06-23T09:54:34.210Z,20.55
2017-06-23T09:55:43.111Z,20.67
2017-06-23T09:56:52.008Z,20.73
2017-06-23T09:58:00.903Z,20.73
2017-06-23T09:59:10.420Z,20.72
2017-06-23T10:00:19.965Z,20.69
2017-06-23T10:01:28.859Z,20.64
2017-06-23T10:02:38.079Z,20.52
2017-06-23T10:03:46.975Z,20.47
2017-06-23T10:04:55.920Z,20.67
2017-06-23T10:06:04.820Z,20.72
2017-06-23T10:07:14.054Z,20.57
2017-06-23T10:08:22.951Z,20.84
2017-06-23T10:09:31.842Z,20.84
2017-06-23T10:10:41.037Z,20.92
2017-06-23T10:11:49.936Z,21.06
2017-06-23T10:12:58.880Z,21.21
2017-06-23T10:14:08.098Z,21.28
2017-06-23T10:15:16.990Z,21.35
2017-06-23T10:16:26.291Z,21.38
2017-06-23T10:17:35.185Z,21.43
2017-06-23T10:18:44.076Z,21.49
2017-06-23T10:19:53.298Z,21.49
2017-06-23T10:21:02.529Z,21.4
2017-06-23T10:22:11.803Z,21.35
2017-06-23T10:23:21.030Z,21.09
2017-06-23T10:24:30.250Z,21.19
2017-06-23T10:25:39.147Z,21.24
2017-06-23T10:26:48.039Z,21.31
2017-06-23T10:27:57.508Z,21.5
2017-06-23T10:29:06.407Z,21.46
2017-06-23T10:30:15.308Z,21.5
2017-06-23T10:31:24.202Z,21.64
2017-06-23T10:32:33.423Z,21.65
2017-06-23T10:33:42.427Z,21.56
2017-06-23T10:34:51.323Z,21.69
2017-06-23T10:36:00.222Z,21.61
2017-06-23T10:37:10.092Z,21.77
2017-06-23T10:38:18.987Z,21.74
2017-06-23T10:39:28.460Z,21.79
2017-06-23T10:40:37.682Z,21.8
2017-06-23T10:41:46.900Z,21.98
2017-06-23T10:42:56.118Z,22
2017-06-23T10:44:05.667Z,22.09
2017-06-23T10:45:14.560Z,22.02
2017-06-23T10:46:23.556Z,21.96
2017-06-23T10:47:32.453Z,22.02
2017-06-23T10:48:41.673Z,21.92
2017-06-23T10:49:50.567Z,21.83
2017-06-23T10:50:59.462Z,21.75
2017-06-23T10:52:08.359Z,21.82
2017-06-23T10:53:17.262Z,21.79
2017-06-23T10:54:26.481Z,21.94
2017-06-23T10:55:36.027Z,22
2017-06-23T10:56:45.894Z,22.1
2017-06-23T10:57:54.786Z,22
2017-06-23T10:59:04.330Z,22.1
2017-06-23T11:00:13.551Z,22.27
2017-06-23T11:01:22.783Z,22.54
2017-06-23T11:02:31.831Z,22.6
2017-06-23T11:03:40.725Z,22.73
2017-06-23T11:04:49.624Z,22.8
2017-06-23T11:05:58.849Z,22.77
2017-06-23T11:07:08.070Z,22.77
2017-06-23T11:08:17.119Z,22.75
2017-06-23T11:09:26.019Z,22.88
2017-06-23T11:10:35.240Z,23.01
2017-06-23T11:11:44.461Z,23.12
2017-06-23T11:12:53.358Z,23.05
2017-06-23T11:14:02.502Z,23.09
2017-06-23T11:15:11.396Z,23.19
2017-06-23T11:16:20.290Z,23.25
2017-06-23T11:17:29.513Z,23.19
2017-06-23T11:18:38.408Z,23.32
2017-06-23T11:19:47.503Z,23.43
2017-06-23T11:20:56.729Z,23.32
2017-06-23T11:22:05.950Z,23.39
2017-06-23T11:23:14.849Z,23.5
2017-06-23T11:24:23.749Z,23.69
2017-06-23T11:25:33.020Z,23.69
2017-06-23T11:26:42.242Z,23.72
2017-06-23T11:27:51.469Z,23.72
2017-06-23T11:29:00.368Z,23.69
2017-06-23T11:30:09.269Z,23.7
2017-06-23T11:31:18.744Z,23.73
2017-06-23T11:32:28.295Z,23.57
2017-06-23T11:33:37.194Z,23.57
2017-06-23T11:34:46.756Z,23.47
2017-06-23T11:35:55.976Z,23.5
2017-06-23T11:37:05.350Z,23.69
2017-06-23T11:38:14.573Z,23.78
2017-06-23T11:39:23.795Z,23.73
2017-06-23T11:40:33.015Z,23.83
2017-06-23T11:41:41.914Z,23.97
2017-06-23T11:42:50.861Z,23.75
2017-06-23T11:43:59.755Z,23.75
2017-06-23T11:45:08.655Z,23.93
2017-06-23T11:46:17.554Z,24.09
2017-06-23T11:47:26.455Z,24.2
2017-06-23T11:48:35.979Z,24.12
2017-06-23T11:49:44.877Z,24.31
2017-06-23T11:50:53.776Z,24.13
2017-06-23T11:52:02.678Z,24.08
2017-06-23T11:53:11.898Z,24.15
2017-06-23T11:54:21.097Z,24.21
2017-06-23T11:55:30.000Z,24.42
2017-06-23T11:56:38.896Z,24.28
2017-06-23T11:57:47.798Z,24.39
2017-06-23T11:58:56.694Z,24.15
2017-06-23T12:00:06.296Z,24
2017-06-23T12:01:15.192Z,23.98
2017-06-23T12:02:24.091Z,23.98
2017-06-23T12:03:32.993Z,24
2017-06-23T12:04:42.215Z,24.05
2017-06-23T12:05:51.686Z,24.13
2017-06-23T12:07:00.902Z,24.16
2017-06-23T12:08:09.803Z,24.16
2017-06-23T12:09:19.026Z,24.24
2017-06-23T12:10:28.249Z,24.18
2017-06-23T12:11:37.198Z,24.18
2017-06-23T12:12:46.096Z,24.25
2017-06-23T12:13:54.993Z,24.45
2017-06-23T12:15:03.893Z,24.57
2017-06-23T12:16:12.792Z,24.67
2017-06-23T12:17:21.843Z,24.57
2017-06-23T12:18:31.074Z,24.58
2017-06-23T12:19:40.306Z,24.57
2017-06-23T12:20:49.204Z,24.53
2017-06-23T12:21:58.104Z,24.52
2017-06-23T12:23:07.660Z,24.58
2017-06-23T12:24:16.933Z,24.69
2017-06-23T12:25:25.836Z,24.81
2017-06-23T12:26:34.744Z,24.77
2017-06-23T12:27:43.643Z,24.62
2017-06-23T12:28:52.741Z,24.69
2017-06-23T12:30:01.975Z,24.83
2017-06-23T12:31:10.881Z,24.99
2017-06-23T12:32:19.781Z,25.2
2017-06-23T12:33:28.680Z,25.3
2017-06-23T12:34:37.729Z,25.27
2017-06-23T12:35:46.972Z,25.35
2017-06-23T12:36:55.870Z,25.18
2017-06-23T12:38:04.773Z,25.21
2017-06-23T12:39:13.680Z,25.14
2017-06-23T12:40:22.745Z,25.14
2017-06-23T12:41:31.991Z,25.18
2017-06-23T12:42:41.555Z,25.27
2017-06-23T12:43:50.485Z,25.1
2017-06-23T12:44:59.727Z,24.85
2017-06-23T12:46:08.778Z,24.84
2017-06-23T12:47:17.680Z,24.87
2017-06-23T12:48:26.906Z,24.98
2017-06-23T12:49:36.130Z,24.77
2017-06-23T12:50:45.034Z,24.85
2017-06-23T12:51:55.057Z,24.83
2017-06-23T12:53:04.287Z,24.85
2017-06-23T12:54:13.192Z,24.85
2017-06-23T12:55:22.089Z,24.71
2017-06-23T12:56:30.992Z,24.55
2017-06-23T12:57:40.043Z,24.53
2017-06-23T12:58:49.286Z,24.53
2017-06-23T12:59:58.519Z,24.53
2017-06-23T13:01:07.419Z,24.45
2017-06-23T13:02:16.648Z,24.3
2017-06-23T13:03:25.692Z,24.27
2017-06-23T13:04:34.588Z,24.21
2017-06-23T13:05:43.487Z,24.1
2017-06-23T13:06:52.718Z,24.15
2017-06-23T13:08:01.943Z,24.13
2017-06-23T13:09:11.488Z,24.16
2017-06-23T13:10:20.383Z,24.18
2017-06-23T13:11:29.282Z,24.18
2017-06-23T13:12:38.188Z,24.22
2017-06-23T13:13:47.087Z,24.24
2017-06-23T13:14:56.134Z,24.21
2017-06-23T13:16:05.354Z,24.12
2017-06-23T13:17:14.257Z,24.15
2017-06-23T13:18:23.151Z,24.06
2017-06-23T13:19:32.045Z,24.16
2017-06-23T13:20:41.240Z,24.3
2017-06-23T13:21:50.142Z,24.4
2017-06-23T13:22:59.372Z,24.53
2017-06-23T13:24:08.278Z,24.45
2017-06-23T13:25:17.176Z,24.58
2017-06-23T13:26:26.126Z,24.53
2017-06-23T13:27:35.344Z,24.5
2017-06-23T13:28:44.587Z,24.53
2017-06-23T13:29:53.492Z,24.34
2017-06-23T13:31:02.721Z,24.42
2017-06-23T13:32:11.776Z,24.35
2017-06-23T13:33:20.672Z,24.45
2017-06-23T13:34:29.894Z,24.69
2017-06-23T13:35:39.117Z,24.83
2017-06-23T13:36:48.340Z,24.84
2017-06-23T13:37:57.712Z,24.95
2017-06-23T13:39:06.938Z,24.81
2017-06-23T13:40:16.484Z,24.81
2017-06-23T13:41:25.389Z,24.69
2017-06-23T13:42:34.615Z,24.76
2017-06-23T13:43:43.679Z,24.68
2017-06-23T13:44:52.908Z,24.76
2017-06-23T13:46:01.807Z,24.67
2017-06-23T13:47:10.707Z,24.71
2017-06-23T13:48:19.608Z,24.62
2017-06-23T13:49:28.661Z,24.67
2017-06-23T13:50:37.885Z,24.73
2017-06-23T13:51:47.111Z,24.8
2017-06-23T13:52:56.014Z,24.73
2017-06-23T13:54:05.235Z,24.68
2017-06-23T13:55:14.554Z,24.6
2017-06-23T13:56:23.451Z,24.43
2017-06-23T13:57:32.356Z,24.28
2017-06-23T13:58:41.260Z,24.24
2017-06-23T13:59:50.484Z,24.18
2017-06-23T14:00:59.539Z,24.02
2017-06-23T14:02:08.438Z,23.94
2017-06-23T14:03:17.338Z,23.98
2017-06-23T14:04:26.898Z,23.84
2017-06-23T14:05:36.123Z,23.95
2017-06-23T14:06:45.825Z,23.9
2017-06-23T14:07:55.369Z,23.95
2017-06-23T14:09:04.597Z,23.94
2017-06-23T14:10:13.502Z,23.91
2017-06-23T14:11:22.748Z,23.94
2017-06-23T14:12:31.795Z,23.98
2017-06-23T14:13:40.692Z,24
2017-06-23T14:14:49.592Z,23.98
2017-06-23T14:15:58.490Z,24
2017-06-23T14:17:07.388Z,24.02
2017-06-23T14:18:16.587Z,24.09
2017-06-23T14:19:25.807Z,24.2
2017-06-23T14:20:34.704Z,24.35
2017-06-23T14:21:43.610Z,24.16
2017-06-23T14:22:52.511Z,24.34
2017-06-23T14:24:01.712Z,24.4
2017-06-23T14:25:10.609Z,24.46
2017-06-23T14:26:19.508Z,24.35
2017-06-23T14:27:28.417Z,24.3
2017-06-23T14:28:37.637Z,24.1
2017-06-23T14:29:46.535Z,24.15
2017-06-23T14:30:55.756Z,24.16
2017-06-23T14:32:04.980Z,23.95
2017-06-23T14:33:13.876Z,23.95
2017-06-23T14:34:22.777Z,24.03
2017-06-23T14:35:31.829Z,24.15
2017-06-23T14:36:40.724Z,24
2017-06-23T14:37:49.943Z,24.18
2017-06-23T14:38:59.164Z,24.18
2017-06-23T14:40:08.388Z,24.28
2017-06-23T14:41:17.543Z,24.47
2017-06-23T14:42:26.767Z,24.55
2017-06-23T14:43:35.664Z,24.53
2017-06-23T14:44:44.565Z,24.58
2017-06-23T14:45:53.470Z,24.76
2017-06-23T14:47:02.744Z,24.83
2017-06-23T14:48:11.968Z,24.87
2017-06-23T14:49:21.196Z,24.77
2017-06-23T14:50:30.094Z,24.83
2017-06-23T14:51:38.991Z,24.83
2017-06-23T14:52:48.091Z,24.68
2017-06-23T14:53:56.990Z,24.77